Avon Lake, Ohio
Current Conditions -  °F | °C
As of 7:35 PM on Sunday 25 Jan 2015 (Local Time) from KCLE Reporting Station
Light Snow Light Snow  
Wind Chill:   Ceiling: 2900
Heat Index: 20°   Visibility: 2mi
Dew Point: 16°   Wind: 20mph
Humidity: 85%   Direction: 30°NNE
Pressure: 29.92"   Gusts: NA
Location:  41.51°N, 82.02°W
Report Text: KCLE 260035Z 03017KT 2SM -SN BR OVC029 M07/M09 A2992 RMK AO2 P0000 T10671089
Loading
Personal Weather Stations






























Interactive Weather Map New forecast layout! Learn more

10-Day Weather Forecast

Advertisements
Track Severe Weather on mobile